sensor_id;sensor_type;location;lat;lon;timestamp;P1;durP1;ratioP1;P2;durP2;ratioP2
8562;SDS011;16392;52.508;13.468;2023-02-01T00:02:02;364.60;;;67.00;;
8562;SDS011;16392;52.508;13.468;2023-02-01T00:04:29;364.93;;;65.27;;
8562;SDS011;16392;52.508;13.468;2023-02-01T00:06:56;369.17;;;71.47;;
8562;SDS011;16392;52.508;13.468;2023-02-01T00:09:24;366.60;;;69.23;;
8562;SDS011;16392;52.508;13.468;2023-02-01T00:11:51;365.40;;;65.43;;
8562;SDS011;16392;52.508;13.468;2023-02-01T00:14:17;365.37;;;66.20;;
8562;SDS011;16392;52.508;13.468;2023-02-01T00:16:44;366.80;;;70.57;;
8562;SDS011;16392;52.508;13.468;2023-02-01T00:19:12;363.53;;;64.43;;
8562;SDS011;16392;52.508;13.468;2023-02-01T00:21:39;362.67;;;63.67;;
8562;SDS011;16392;52.508;13.468;2023-02-01T00:24:06;361.67;;;63.37;;
8562;SDS011;16392;52.508;13.468;2023-02-01T00:26:37;362.23;;;63.20;;
8562;SDS011;16392;52.508;13.468;2023-02-01T00:29:06;362.07;;;63.97;;
8562;SDS011;16392;52.508;13.468;2023-02-01T00:31:36;359.43;;;61.50;;
8562;SDS011;16392;52.508;13.468;2023-02-01T00:34:03;361.40;;;65.00;;
8562;SDS011;16392;52.508;13.468;2023-02-01T00:36:30;369.47;;;66.40;;
8562;SDS011;16392;52.508;13.468;2023-02-01T00:38:57;364.17;;;67.83;;
8562;SDS011;16392;52.508;13.468;2023-02-01T00:41:23;364.10;;;64.67;;
8562;SDS011;16392;52.508;13.468;2023-02-01T00:43:52;363.50;;;68.17;;
8562;SDS011;16392;52.508;13.468;2023-02-01T00:46:19;363.80;;;64.43;;
8562;SDS011;16392;52.508;13.468;2023-02-01T00:48:46;363.20;;;68.17;;
8562;SDS011;16392;52.508;13.468;2023-02-01T00:51:13;361.57;;;63.73;;
8562;SDS011;16392;52.508;13.468;2023-02-01T00:53:42;360.77;;;64.10;;
8562;SDS011;16392;52.508;13.468;2023-02-01T00:56:08;360.97;;;64.80;;
8562;SDS011;16392;52.508;13.468;2023-02-01T00:58:36;362.60;;;63.80;;
8562;SDS011;16392;52.508;13.468;2023-02-01T01:01:05;363.80;;;66.13;;
8562;SDS011;16392;52.508;13.468;2023-02-01T01:03:34;364.10;;;64.37;;
8562;SDS011;16392;52.508;13.468;2023-02-01T01:06:03;360.23;;;62.77;;
8562;SDS011;16392;52.508;13.468;2023-02-01T01:08:31;361.93;;;63.53;;
8562;SDS011;16392;52.508;13.468;2023-02-01T01:10:58;361.00;;;63.97;;
8562;SDS011;16392;52.508;13.468;2023-02-01T01:13:29;363.00;;;63.90;;
8562;SDS011;16392;52.508;13.468;2023-02-01T01:15:56;365.43;;;65.57;;
8562;SDS011;16392;52.508;13.468;2023-02-01T01:18:23;359.40;;;63.53;;
8562;SDS011;16392;52.508;13.468;2023-02-01T01:20:50;361.17;;;63.53;;
8562;SDS011;16392;52.508;13.468;2023-02-01T01:23:17;364.57;;;66.90;;
8562;SDS011;16392;52.508;13.468;2023-02-01T01:25:43;360.87;;;63.27;;
8562;SDS011;16392;52.508;13.468;2023-02-01T01:28:10;361.13;;;63.90;;
8562;SDS011;16392;52.508;13.468;2023-02-01T01:30:36;362.40;;;65.10;;
8562;SDS011;16392;52.508;13.468;2023-02-01T01:33:04;362.83;;;64.93;;
8562;SDS011;16392;52.508;13.468;2023-02-01T01:35:32;362.23;;;63.33;;
8562;SDS011;16392;52.508;13.468;2023-02-01T01:37:59;360.43;;;65.20;;
8562;SDS011;16392;52.508;13.468;2023-02-01T01:40:26;363.40;;;63.10;;
8562;SDS011;16392;52.508;13.468;2023-02-01T01:42:53;362.50;;;63.97;;
8562;SDS011;16392;52.508;13.468;2023-02-01T01:45:23;365.70;;;65.13;;
8562;SDS011;16392;52.508;13.468;2023-02-01T01:47:52;360.57;;;63.60;;
8562;SDS011;16392;52.508;13.468;2023-02-01T01:50:21;361.07;;;67.17;;
8562;SDS011;16392;52.508;13.468;2023-02-01T01:52:54;359.80;;;65.07;;
8562;SDS011;16392;52.508;13.468;2023-02-01T01:55:22;362.60;;;63.73;;
8562;SDS011;16392;52.508;13.468;2023-02-01T01:57:52;365.27;;;67.53;;
8562;SDS011;16392;52.508;13.468;2023-02-01T02:00:23;360.17;;;64.27;;
8562;SDS011;16392;52.508;13.468;2023-02-01T02:02:52;361.57;;;67.17;;
8562;SDS011;16392;52.508;13.468;2023-02-01T02:05:23;362.40;;;63.30;;
8562;SDS011;16392;52.508;13.468;2023-02-01T02:07:50;359.73;;;64.00;;
8562;SDS011;16392;52.508;13.468;2023-02-01T02:10:20;361.63;;;63.80;;
8562;SDS011;16392;52.508;13.468;2023-02-01T02:13:06;359.67;;;65.87;;
8562;SDS011;16392;52.508;13.468;2023-02-01T02:15:33;362.03;;;64.00;;
8562;SDS011;16392;52.508;13.468;2023-02-01T02:18:04;365.80;;;68.70;;
8562;SDS011;16392;52.508;13.468;2023-02-01T02:20:45;364.77;;;64.07;;
8562;SDS011;16392;52.508;13.468;2023-02-01T02:23:39;366.57;;;71.73;;
8562;SDS011;16392;52.508;13.468;2023-02-01T02:26:39;361.30;;;63.10;;
8562;SDS011;16392;52.508;13.468;2023-02-01T02:32:20;361.70;;;64.57;;
8562;SDS011;16392;52.508;13.468;2023-02-01T02:35:19;375.53;;;71.73;;
8562;SDS011;16392;52.508;13.468;2023-02-01T02:37:54;363.87;;;67.87;;
8562;SDS011;16392;52.508;13.468;2023-02-01T02:40:32;360.30;;;63.70;;
8562;SDS011;16392;52.508;13.468;2023-02-01T02:43:04;361.07;;;62.87;;
8562;SDS011;16392;52.508;13.468;2023-02-01T02:45:54;363.97;;;65.87;;
8562;SDS011;16392;52.508;13.468;2023-02-01T02:48:59;383.80;;;67.47;;
8562;SDS011;16392;52.508;13.468;2023-02-01T02:51:32;372.60;;;74.00;;
8562;SDS011;16392;52.508;13.468;2023-02-01T02:54:22;365.17;;;66.50;;
8562;SDS011;16392;52.508;13.468;2023-02-01T02:57:07;365.03;;;66.27;;
8562;SDS011;16392;52.508;13.468;2023-02-01T02:59:55;363.20;;;65.57;;
8562;SDS011;16392;52.508;13.468;2023-02-01T03:02:42;362.07;;;62.27;;
8562;SDS011;16392;52.508;13.468;2023-02-01T03:05:31;363.70;;;63.87;;
8562;SDS011;16392;52.508;13.468;2023-02-01T03:08:04;367.63;;;65.80;;
8562;SDS011;16392;52.508;13.468;2023-02-01T03:10:37;364.53;;;64.13;;
8562;SDS011;16392;52.508;13.468;2023-02-01T03:13:11;364.63;;;64.13;;
8562;SDS011;16392;52.508;13.468;2023-02-01T03:15:44;367.70;;;64.20;;
8562;SDS011;16392;52.508;13.468;2023-02-01T03:18:17;365.57;;;64.83;;
8562;SDS011;16392;52.508;13.468;2023-02-01T03:20:46;364.77;;;63.67;;
8562;SDS011;16392;52.508;13.468;2023-02-01T03:23:19;366.57;;;64.27;;
8562;SDS011;16392;52.508;13.468;2023-02-01T03:25:49;367.70;;;65.27;;
8562;SDS011;16392;52.508;13.468;2023-02-01T03:28:18;365.77;;;64.43;;
8562;SDS011;16392;52.508;13.468;2023-02-01T03:30:48;369.83;;;71.50;;
8562;SDS011;16392;52.508;13.468;2023-02-01T03:33:16;368.73;;;65.27;;
8562;SDS011;16392;52.508;13.468;2023-02-01T03:35:50;366.50;;;65.37;;
8562;SDS011;16392;52.508;13.468;2023-02-01T03:38:25;368.03;;;65.23;;
8562;SDS011;16392;52.508;13.468;2023-02-01T03:40:57;367.03;;;64.63;;
8562;SDS011;16392;52.508;13.468;2023-02-01T03:43:29;366.50;;;67.10;;
8562;SDS011;16392;52.508;13.468;2023-02-01T03:46:02;368.03;;;66.03;;
8562;SDS011;16392;52.508;13.468;2023-02-01T03:48:32;367.43;;;66.77;;
8562;SDS011;16392;52.508;13.468;2023-02-01T03:51:00;367.90;;;65.53;;
8562;SDS011;16392;52.508;13.468;2023-02-01T03:53:32;367.33;;;64.73;;
8562;SDS011;16392;52.508;13.468;2023-02-01T03:56:02;367.73;;;65.03;;
8562;SDS011;16392;52.508;13.468;2023-02-01T03:58:29;368.27;;;65.00;;
8562;SDS011;16392;52.508;13.468;2023-02-01T04:00:56;368.20;;;64.87;;
8562;SDS011;16392;52.508;13.468;2023-02-01T04:03:25;367.30;;;64.77;;
8562;SDS011;16392;52.508;13.468;2023-02-01T04:05:53;367.90;;;67.77;;
8562;SDS011;16392;52.508;13.468;2023-02-01T04:08:20;367.97;;;64.00;;
8562;SDS011;16392;52.508;13.468;2023-02-01T04:10:49;368.63;;;64.90;;
8562;SDS011;16392;52.508;13.468;2023-02-01T04:13:16;367.47;;;63.33;;
8562;SDS011;16392;52.508;13.468;2023-02-01T04:15:42;368.77;;;63.43;;
8562;SDS011;16392;52.508;13.468;2023-02-01T04:18:10;371.17;;;64.97;;
8562;SDS011;16392;52.508;13.468;2023-02-01T04:20:37;369.30;;;67.13;;
8562;SDS011;16392;52.508;13.468;2023-02-01T04:23:03;369.17;;;63.97;;
8562;SDS011;16392;52.508;13.468;2023-02-01T04:25:30;370.83;;;64.40;;
8562;SDS011;16392;52.508;13.468;2023-02-01T04:27:58;370.50;;;66.70;;
8562;SDS011;16392;52.508;13.468;2023-02-01T04:30:25;372.07;;;65.93;;
8562;SDS011;16392;52.508;13.468;2023-02-01T04:32:52;369.43;;;65.67;;
8562;SDS011;16392;52.508;13.468;2023-02-01T04:35:18;369.93;;;64.93;;
8562;SDS011;16392;52.508;13.468;2023-02-01T04:37:45;371.30;;;64.67;;
8562;SDS011;16392;52.508;13.468;2023-02-01T04:40:11;372.60;;;66.40;;
8562;SDS011;16392;52.508;13.468;2023-02-01T04:42:38;372.40;;;64.17;;
8562;SDS011;16392;52.508;13.468;2023-02-01T04:45:07;373.93;;;65.73;;
8562;SDS011;16392;52.508;13.468;2023-02-01T04:47:34;375.77;;;66.23;;
8562;SDS011;16392;52.508;13.468;2023-02-01T04:50:00;373.60;;;65.40;;
8562;SDS011;16392;52.508;13.468;2023-02-01T04:52:27;374.60;;;66.87;;
8562;SDS011;16392;52.508;13.468;2023-02-01T04:54:53;378.33;;;70.93;;
8562;SDS011;16392;52.508;13.468;2023-02-01T04:57:22;373.63;;;65.87;;
8562;SDS011;16392;52.508;13.468;2023-02-01T04:59:49;374.53;;;65.97;;
8562;SDS011;16392;52.508;13.468;2023-02-01T05:02:17;375.70;;;67.17;;
8562;SDS011;16392;52.508;13.468;2023-02-01T05:04:43;378.43;;;69.77;;
8562;SDS011;16392;52.508;13.468;2023-02-01T05:07:10;375.27;;;69.53;;
8562;SDS011;16392;52.508;13.468;2023-02-01T05:09:36;374.83;;;65.33;;
8562;SDS011;16392;52.508;13.468;2023-02-01T05:12:03;375.00;;;65.10;;
8562;SDS011;16392;52.508;13.468;2023-02-01T05:14:48;377.07;;;67.70;;
8562;SDS011;16392;52.508;13.468;2023-02-01T05:17:14;378.50;;;67.47;;
8562;SDS011;16392;52.508;13.468;2023-02-01T05:19:42;377.67;;;67.43;;
8562;SDS011;16392;52.508;13.468;2023-02-01T05:22:09;379.50;;;67.53;;
8562;SDS011;16392;52.508;13.468;2023-02-01T05:24:35;378.77;;;67.30;;
8562;SDS011;16392;52.508;13.468;2023-02-01T05:27:02;379.37;;;75.47;;
8562;SDS011;16392;52.508;13.468;2023-02-01T05:29:29;378.73;;;66.77;;
8562;SDS011;16392;52.508;13.468;2023-02-01T05:31:55;378.97;;;69.47;;
8562;SDS011;16392;52.508;13.468;2023-02-01T05:34:23;377.87;;;66.40;;
8562;SDS011;16392;52.508;13.468;2023-02-01T05:36:50;375.63;;;65.83;;
8562;SDS011;16392;52.508;13.468;2023-02-01T05:39:17;377.83;;;67.70;;
8562;SDS011;16392;52.508;13.468;2023-02-01T05:41:43;377.13;;;68.37;;
8562;SDS011;16392;52.508;13.468;2023-02-01T05:44:10;380.27;;;68.83;;
8562;SDS011;16392;52.508;13.468;2023-02-01T05:46:37;377.23;;;67.13;;
8562;SDS011;16392;52.508;13.468;2023-02-01T05:49:04;381.83;;;67.20;;
8562;SDS011;16392;52.508;13.468;2023-02-01T05:51:32;379.80;;;67.57;;
8562;SDS011;16392;52.508;13.468;2023-02-01T05:53:59;379.07;;;66.70;;
8562;SDS011;16392;52.508;13.468;2023-02-01T05:56:25;381.07;;;70.27;;
8562;SDS011;16392;52.508;13.468;2023-02-01T05:58:52;380.93;;;67.50;;
8562;SDS011;16392;52.508;13.468;2023-02-01T06:01:19;379.83;;;66.80;;
8562;SDS011;16392;52.508;13.468;2023-02-01T06:03:45;379.50;;;69.50;;
8562;SDS011;16392;52.508;13.468;2023-02-01T06:06:12;380.70;;;66.50;;
8562;SDS011;16392;52.508;13.468;2023-02-01T06:08:40;381.90;;;68.25;;
8562;SDS011;16392;52.508;13.468;2023-02-01T06:11:06;377.17;;;65.43;;
8562;SDS011;16392;52.508;13.468;2023-02-01T06:13:33;378.93;;;66.00;;
8562;SDS011;16392;52.508;13.468;2023-02-01T06:16:00;382.00;;;68.80;;
8562;SDS011;16392;52.508;13.468;2023-02-01T06:18:27;376.33;;;65.13;;
8562;SDS011;16392;52.508;13.468;2023-02-01T06:20:56;379.47;;;69.10;;
8562;SDS011;16392;52.508;13.468;2023-02-01T06:23:24;378.30;;;67.07;;
8562;SDS011;16392;52.508;13.468;2023-02-01T06:25:57;378.60;;;68.53;;
8562;SDS011;16392;52.508;13.468;2023-02-01T06:28:25;375.27;;;65.47;;
8562;SDS011;16392;52.508;13.468;2023-02-01T06:30:52;380.37;;;75.30;;
8562;SDS011;16392;52.508;13.468;2023-02-01T06:33:18;376.97;;;70.77;;
8562;SDS011;16392;52.508;13.468;2023-02-01T06:35:45;375.13;;;66.07;;
8562;SDS011;16392;52.508;13.468;2023-02-01T06:38:12;374.77;;;66.30;;
8562;SDS011;16392;52.508;13.468;2023-02-01T06:40:39;373.10;;;65.43;;
8562;SDS011;16392;52.508;13.468;2023-02-01T06:43:08;382.67;;;86.07;;
8562;SDS011;16392;52.508;13.468;2023-02-01T06:45:35;373.13;;;65.67;;
8562;SDS011;16392;52.508;13.468;2023-02-01T06:48:01;372.33;;;65.77;;
8562;SDS011;16392;52.508;13.468;2023-02-01T06:50:28;372.97;;;66.97;;
8562;SDS011;16392;52.508;13.468;2023-02-01T06:52:55;370.67;;;65.40;;
8562;SDS011;16392;52.508;13.468;2023-02-01T06:55:21;372.33;;;65.50;;
8562;SDS011;16392;52.508;13.468;2023-02-01T06:57:51;372.73;;;65.73;;
8562;SDS011;16392;52.508;13.468;2023-02-01T07:00:21;374.13;;;71.33;;
8562;SDS011;16392;52.508;13.468;2023-02-01T07:02:48;373.33;;;66.70;;
8562;SDS011;16392;52.508;13.468;2023-02-01T07:05:15;375.17;;;72.17;;
8562;SDS011;16392;52.508;13.468;2023-02-01T07:07:41;371.60;;;65.77;;
8562;SDS011;16392;52.508;13.468;2023-02-01T07:10:09;371.47;;;66.77;;
8562;SDS011;16392;52.508;13.468;2023-02-01T07:12:36;370.93;;;66.87;;
8562;SDS011;16392;52.508;13.468;2023-02-01T07:15:03;372.60;;;67.57;;
8562;SDS011;16392;52.508;13.468;2023-02-01T07:17:32;372.93;;;67.07;;
8562;SDS011;16392;52.508;13.468;2023-02-01T07:19:59;370.40;;;64.97;;
8562;SDS011;16392;52.508;13.468;2023-02-01T07:22:26;373.23;;;65.80;;
8562;SDS011;16392;52.508;13.468;2023-02-01T07:24:55;372.67;;;67.40;;
8562;SDS011;16392;52.508;13.468;2023-02-01T07:27:22;372.90;;;69.07;;
8562;SDS011;16392;52.508;13.468;2023-02-01T07:29:49;368.87;;;67.93;;
8562;SDS011;16392;52.508;13.468;2023-02-01T07:32:16;372.43;;;69.50;;
8562;SDS011;16392;52.508;13.468;2023-02-01T07:34:44;374.00;;;71.43;;
8562;SDS011;16392;52.508;13.468;2023-02-01T07:37:11;370.73;;;66.93;;
8562;SDS011;16392;52.508;13.468;2023-02-01T07:39:38;371.93;;;68.33;;
8562;SDS011;16392;52.508;13.468;2023-02-01T07:42:05;370.73;;;67.57;;
8562;SDS011;16392;52.508;13.468;2023-02-01T07:44:32;373.30;;;69.23;;
8562;SDS011;16392;52.508;13.468;2023-02-01T07:46:58;371.63;;;65.93;;
8562;SDS011;16392;52.508;13.468;2023-02-01T07:49:25;374.37;;;70.37;;
8562;SDS011;16392;52.508;13.468;2023-02-01T07:51:53;372.77;;;69.33;;
8562;SDS011;16392;52.508;13.468;2023-02-01T07:54:20;372.37;;;65.73;;
8562;SDS011;16392;52.508;13.468;2023-02-01T07:56:46;372.57;;;69.90;;
8562;SDS011;16392;52.508;13.468;2023-02-01T07:59:13;369.40;;;70.07;;
8562;SDS011;16392;52.508;13.468;2023-02-01T08:01:41;369.83;;;69.00;;
8562;SDS011;16392;52.508;13.468;2023-02-01T08:04:09;367.13;;;64.10;;
8562;SDS011;16392;52.508;13.468;2023-02-01T08:06:37;365.63;;;63.00;;
8562;SDS011;16392;52.508;13.468;2023-02-01T08:09:06;366.30;;;66.03;;
8562;SDS011;16392;52.508;13.468;2023-02-01T08:11:33;366.93;;;64.10;;
8562;SDS011;16392;52.508;13.468;2023-02-01T08:14:02;366.97;;;64.40;;
8562;SDS011;16392;52.508;13.468;2023-02-01T08:16:29;362.73;;;63.60;;
8562;SDS011;16392;52.508;13.468;2023-02-01T08:18:56;363.57;;;64.20;;
8562;SDS011;16392;52.508;13.468;2023-02-01T08:21:23;362.77;;;64.13;;
8562;SDS011;16392;52.508;13.468;2023-02-01T08:23:51;361.50;;;64.57;;
8562;SDS011;16392;52.508;13.468;2023-02-01T08:26:20;364.03;;;66.13;;
8562;SDS011;16392;52.508;13.468;2023-02-01T08:28:49;362.90;;;65.13;;
8562;SDS011;16392;52.508;13.468;2023-02-01T08:31:18;362.40;;;63.67;;
8562;SDS011;16392;52.508;13.468;2023-02-01T08:33:47;364.07;;;67.83;;
8562;SDS011;16392;52.508;13.468;2023-02-01T08:36:16;362.77;;;64.03;;
8562;SDS011;16392;52.508;13.468;2023-02-01T08:38:42;360.90;;;63.93;;
8562;SDS011;16392;52.508;13.468;2023-02-01T08:41:10;363.20;;;64.10;;
8562;SDS011;16392;52.508;13.468;2023-02-01T08:43:40;360.60;;;63.80;;
8562;SDS011;16392;52.508;13.468;2023-02-01T08:46:07;361.23;;;63.13;;
8562;SDS011;16392;52.508;13.468;2023-02-01T08:48:34;361.80;;;63.80;;
8562;SDS011;16392;52.508;13.468;2023-02-01T08:51:02;360.67;;;63.10;;
8562;SDS011;16392;52.508;13.468;2023-02-01T08:53:29;361.00;;;64.60;;
8562;SDS011;16392;52.508;13.468;2023-02-01T08:55:56;360.90;;;64.47;;
8562;SDS011;16392;52.508;13.468;2023-02-01T08:58:23;361.27;;;63.60;;
8562;SDS011;16392;52.508;13.468;2023-02-01T09:00:50;361.33;;;64.30;;
8562;SDS011;16392;52.508;13.468;2023-02-01T09:03:17;363.13;;;64.80;;
8562;SDS011;16392;52.508;13.468;2023-02-01T09:05:44;361.10;;;64.13;;
8562;SDS011;16392;52.508;13.468;2023-02-01T09:08:11;362.70;;;65.10;;
8562;SDS011;16392;52.508;13.468;2023-02-01T09:10:39;359.90;;;63.33;;
8562;SDS011;16392;52.508;13.468;2023-02-01T09:13:06;359.97;;;62.80;;
8562;SDS011;16392;52.508;13.468;2023-02-01T09:15:32;361.07;;;63.70;;
8562;SDS011;16392;52.508;13.468;2023-02-01T09:18:00;361.97;;;65.00;;
8562;SDS011;16392;52.508;13.468;2023-02-01T09:20:27;360.10;;;63.80;;
8562;SDS011;16392;52.508;13.468;2023-02-01T09:22:54;363.70;;;64.70;;
8562;SDS011;16392;52.508;13.468;2023-02-01T09:25:21;361.07;;;63.23;;
8562;SDS011;16392;52.508;13.468;2023-02-01T09:27:48;362.07;;;65.53;;
8562;SDS011;16392;52.508;13.468;2023-02-01T09:30:15;362.50;;;63.53;;
8562;SDS011;16392;52.508;13.468;2023-02-01T09:32:42;364.93;;;67.60;;
8562;SDS011;16392;52.508;13.468;2023-02-01T09:35:09;363.83;;;64.07;;
8562;SDS011;16392;52.508;13.468;2023-02-01T09:37:36;363.90;;;66.63;;
8562;SDS011;16392;52.508;13.468;2023-02-01T09:40:03;364.50;;;66.00;;
8562;SDS011;16392;52.508;13.468;2023-02-01T09:42:45;365.00;;;65.60;;
8562;SDS011;16392;52.508;13.468;2023-02-01T09:45:26;363.03;;;64.23;;
8562;SDS011;16392;52.508;13.468;2023-02-01T09:48:01;366.27;;;64.80;;
8562;SDS011;16392;52.508;13.468;2023-02-01T09:50:35;362.87;;;63.20;;
8562;SDS011;16392;52.508;13.468;2023-02-01T09:53:05;368.07;;;64.13;;
8562;SDS011;16392;52.508;13.468;2023-02-01T09:55:38;368.57;;;67.33;;
8562;SDS011;16392;52.508;13.468;2023-02-01T09:58:09;367.63;;;64.73;;
8562;SDS011;16392;52.508;13.468;2023-02-01T10:00:41;368.60;;;67.83;;
8562;SDS011;16392;52.508;13.468;2023-02-01T10:03:16;365.70;;;66.20;;
8562;SDS011;16392;52.508;13.468;2023-02-01T10:05:49;367.20;;;66.07;;
8562;SDS011;16392;52.508;13.468;2023-02-01T10:08:32;366.27;;;65.57;;
8562;SDS011;16392;52.508;13.468;2023-02-01T10:11:13;367.77;;;65.43;;
8562;SDS011;16392;52.508;13.468;2023-02-01T10:13:51;367.33;;;67.70;;
8562;SDS011;16392;52.508;13.468;2023-02-01T10:16:27;367.97;;;69.33;;
8562;SDS011;16392;52.508;13.468;2023-02-01T10:19:10;364.40;;;63.70;;
8562;SDS011;16392;52.508;13.468;2023-02-01T10:21:52;364.67;;;65.40;;
8562;SDS011;16392;52.508;13.468;2023-02-01T10:24:34;364.37;;;64.03;;
8562;SDS011;16392;52.508;13.468;2023-02-01T10:27:09;366.07;;;66.67;;
8562;SDS011;16392;52.508;13.468;2023-02-01T10:29:39;360.97;;;64.27;;
8562;SDS011;16392;52.508;13.468;2023-02-01T10:32:10;363.97;;;64.47;;
8562;SDS011;16392;52.508;13.468;2023-02-01T10:34:39;363.70;;;66.57;;
8562;SDS011;16392;52.508;13.468;2023-02-01T10:37:13;363.53;;;64.03;;
8562;SDS011;16392;52.508;13.468;2023-02-01T10:39:46;364.90;;;66.00;;
8562;SDS011;16392;52.508;13.468;2023-02-01T10:42:14;364.37;;;66.13;;
8562;SDS011;16392;52.508;13.468;2023-02-01T10:44:42;367.17;;;67.00;;
8562;SDS011;16392;52.508;13.468;2023-02-01T10:47:13;365.63;;;64.27;;
8562;SDS011;16392;52.508;13.468;2023-02-01T10:49:41;368.47;;;66.77;;
8562;SDS011;16392;52.508;13.468;2023-02-01T10:52:18;364.33;;;64.80;;
8562;SDS011;16392;52.508;13.468;2023-02-01T10:54:48;367.27;;;66.60;;
8562;SDS011;16392;52.508;13.468;2023-02-01T10:57:20;367.00;;;64.80;;
8562;SDS011;16392;52.508;13.468;2023-02-01T10:59:49;368.43;;;66.03;;
8562;SDS011;16392;52.508;13.468;2023-02-01T11:02:19;366.07;;;65.53;;
8562;SDS011;16392;52.508;13.468;2023-02-01T11:04:57;363.97;;;65.13;;
8562;SDS011;16392;52.508;13.468;2023-02-01T11:07:27;362.70;;;66.33;;
8562;SDS011;16392;52.508;13.468;2023-02-01T11:09:55;365.30;;;65.87;;
8562;SDS011;16392;52.508;13.468;2023-02-01T11:12:30;366.90;;;68.03;;
8562;SDS011;16392;52.508;13.468;2023-02-01T11:15:02;366.37;;;65.93;;
8562;SDS011;16392;52.508;13.468;2023-02-01T11:17:40;365.63;;;65.27;;
8562;SDS011;16392;52.508;13.468;2023-02-01T11:20:12;368.07;;;65.23;;
8562;SDS011;16392;52.508;13.468;2023-02-01T11:22:46;367.67;;;64.87;;
8562;SDS011;16392;52.508;13.468;2023-02-01T11:25:14;367.77;;;64.27;;
8562;SDS011;16392;52.508;13.468;2023-02-01T11:27:43;371.43;;;65.40;;
8562;SDS011;16392;52.508;13.468;2023-02-01T11:30:14;373.50;;;68.40;;
8562;SDS011;16392;52.508;13.468;2023-02-01T11:32:42;375.80;;;71.00;;
8562;SDS011;16392;52.508;13.468;2023-02-01T11:35:11;372.63;;;67.33;;
8562;SDS011;16392;52.508;13.468;2023-02-01T11:37:42;375.63;;;68.43;;
8562;SDS011;16392;52.508;13.468;2023-02-01T11:40:25;377.77;;;67.73;;
8562;SDS011;16392;52.508;13.468;2023-02-01T11:42:54;380.80;;;68.47;;
8562;SDS011;16392;52.508;13.468;2023-02-01T11:45:24;382.67;;;67.63;;
8562;SDS011;16392;52.508;13.468;2023-02-01T11:47:52;384.70;;;68.57;;
8562;SDS011;16392;52.508;13.468;2023-02-01T11:50:22;385.07;;;70.33;;
8562;SDS011;16392;52.508;13.468;2023-02-01T11:53:09;385.80;;;69.07;;
8562;SDS011;16392;52.508;13.468;2023-02-01T11:55:55;383.47;;;69.70;;
8562;SDS011;16392;52.508;13.468;2023-02-01T11:58:30;387.13;;;70.30;;
8562;SDS011;16392;52.508;13.468;2023-02-01T12:01:19;386.53;;;69.53;;
8562;SDS011;16392;52.508;13.468;2023-02-01T12:04:19;382.77;;;67.37;;
8562;SDS011;16392;52.508;13.468;2023-02-01T12:07:11;389.67;;;68.80;;
8562;SDS011;16392;52.508;13.468;2023-02-01T12:09:46;387.83;;;69.67;;
8562;SDS011;16392;52.508;13.468;2023-02-01T12:12:22;391.57;;;68.73;;
8562;SDS011;16392;52.508;13.468;2023-02-01T12:14:59;389.73;;;70.33;;
8562;SDS011;16392;52.508;13.468;2023-02-01T12:17:41;388.13;;;69.23;;
8562;SDS011;16392;52.508;13.468;2023-02-01T12:20:24;392.10;;;69.27;;
8562;SDS011;16392;52.508;13.468;2023-02-01T12:23:06;387.63;;;69.10;;
8562;SDS011;16392;52.508;13.468;2023-02-01T12:25:46;393.10;;;73.50;;
8562;SDS011;16392;52.508;13.468;2023-02-01T12:28:40;391.63;;;69.27;;
8562;SDS011;16392;52.508;13.468;2023-02-01T12:31:22;391.50;;;68.68;;
8562;SDS011;16392;52.508;13.468;2023-02-01T12:34:07;390.90;;;68.60;;
8562;SDS011;16392;52.508;13.468;2023-02-01T12:36:49;389.77;;;68.47;;
8562;SDS011;16392;52.508;13.468;2023-02-01T12:39:23;387.30;;;67.63;;
8562;SDS011;16392;52.508;13.468;2023-02-01T12:41:55;388.60;;;68.57;;
8562;SDS011;16392;52.508;13.468;2023-02-01T12:44:32;387.23;;;66.90;;
8562;SDS011;16392;52.508;13.468;2023-02-01T12:47:05;385.93;;;67.47;;
8562;SDS011;16392;52.508;13.468;2023-02-01T12:49:43;387.27;;;67.70;;
8562;SDS011;16392;52.508;13.468;2023-02-01T12:52:18;386.37;;;68.00;;
8562;SDS011;16392;52.508;13.468;2023-02-01T12:54:50;387.07;;;70.10;;
8562;SDS011;16392;52.508;13.468;2023-02-01T12:57:23;383.53;;;68.63;;
8562;SDS011;16392;52.508;13.468;2023-02-01T12:59:56;386.17;;;69.77;;
8562;SDS011;16392;52.508;13.468;2023-02-01T13:02:33;385.10;;;67.55;;
8562;SDS011;16392;52.508;13.468;2023-02-01T13:05:13;387.53;;;69.63;;
8562;SDS011;16392;52.508;13.468;2023-02-01T13:07:44;387.87;;;68.03;;
8562;SDS011;16392;52.508;13.468;2023-02-01T13:10:15;386.80;;;68.13;;
8562;SDS011;16392;52.508;13.468;2023-02-01T13:12:44;388.98;;;68.97;;
8562;SDS011;16392;52.508;13.468;2023-02-01T13:15:19;387.07;;;67.80;;
8562;SDS011;16392;52.508;13.468;2023-02-01T13:17:49;391.03;;;70.33;;
8562;SDS011;16392;52.508;13.468;2023-02-01T13:20:19;389.55;;;69.20;;
8562;SDS011;16392;52.508;13.468;2023-02-01T13:22:51;392.27;;;71.13;;
8562;SDS011;16392;52.508;13.468;2023-02-01T13:25:26;392.27;;;70.07;;
8562;SDS011;16392;52.508;13.468;2023-02-01T13:27:58;389.77;;;69.10;;
8562;SDS011;16392;52.508;13.468;2023-02-01T13:30:34;391.60;;;72.22;;
8562;SDS011;16392;52.508;13.468;2023-02-01T13:33:21;389.60;;;68.27;;
8562;SDS011;16392;52.508;13.468;2023-02-01T13:36:03;388.87;;;68.93;;
8562;SDS011;16392;52.508;13.468;2023-02-01T13:41:40;390.63;;;71.03;;
8562;SDS011;16392;52.508;13.468;2023-02-01T13:44:10;387.20;;;68.20;;
8562;SDS011;16392;52.508;13.468;2023-02-01T13:46:51;389.60;;;70.57;;
8562;SDS011;16392;52.508;13.468;2023-02-01T13:49:23;387.63;;;69.90;;
8562;SDS011;16392;52.508;13.468;2023-02-01T13:51:53;389.53;;;69.67;;
8562;SDS011;16392;52.508;13.468;2023-02-01T13:54:25;388.10;;;71.97;;
8562;SDS011;16392;52.508;13.468;2023-02-01T13:56:55;389.97;;;70.00;;
8562;SDS011;16392;52.508;13.468;2023-02-01T14:08:45;389.17;;;68.93;;
8562;SDS011;16392;52.508;13.468;2023-02-01T14:11:36;390.93;;;69.87;;
8562;SDS011;16392;52.508;13.468;2023-02-01T14:23:23;385.73;;;68.80;;
8562;SDS011;16392;52.508;13.468;2023-02-01T14:26:02;382.08;;;68.82;;
8562;SDS011;16392;52.508;13.468;2023-02-01T14:28:32;379.83;;;66.90;;
8562;SDS011;16392;52.508;13.468;2023-02-01T14:31:06;382.27;;;68.03;;
8562;SDS011;16392;52.508;13.468;2023-02-01T14:33:41;378.77;;;66.40;;
8562;SDS011;16392;52.508;13.468;2023-02-01T14:36:10;379.07;;;66.10;;
8562;SDS011;16392;52.508;13.468;2023-02-01T14:38:46;379.70;;;66.63;;
8562;SDS011;16392;52.508;13.468;2023-02-01T14:41:23;379.30;;;66.23;;
8562;SDS011;16392;52.508;13.468;2023-02-01T14:44:14;374.77;;;66.20;;
8562;SDS011;16392;52.508;13.468;2023-02-01T14:47:06;380.10;;;69.77;;
8562;SDS011;16392;52.508;13.468;2023-02-01T14:49:54;378.93;;;67.57;;
8562;SDS011;16392;52.508;13.468;2023-02-01T14:52:28;378.13;;;66.97;;
8562;SDS011;16392;52.508;13.468;2023-02-01T14:55:02;376.47;;;66.47;;
8562;SDS011;16392;52.508;13.468;2023-02-01T14:57:33;376.47;;;66.10;;